createdAt,value
2017-12-25T00:02:10.749Z,2.93
2017-12-25T00:04:36.630Z,2.83
2017-12-25T00:07:02.564Z,3.20
2017-12-25T00:09:28.376Z,3.00
2017-12-25T00:11:54.551Z,3.13
2017-12-25T00:14:24.019Z,3.45
2017-12-25T00:16:49.920Z,3.45
2017-12-25T00:19:15.858Z,1.93
2017-12-25T00:21:41.738Z,3.00
2017-12-25T00:24:07.645Z,2.93
2017-12-25T00:26:34.010Z,1.83
2017-12-25T00:28:59.858Z,3.25
2017-12-25T00:31:28.659Z,2.10
2017-12-25T00:36:49.064Z,2.53
2017-12-25T00:39:14.935Z,3.10
2017-12-25T00:41:40.908Z,2.50
2017-12-25T00:44:06.799Z,3.60
2017-12-25T00:46:32.684Z,3.10
2017-12-25T00:48:58.579Z,2.90
2017-12-25T00:51:24.441Z,3.03
2017-12-25T00:53:50.324Z,2.30
2017-12-25T00:56:16.188Z,3.70
2017-12-25T00:58:48.156Z,3.00
2017-12-25T01:01:14.069Z,4.37
2017-12-25T01:03:39.915Z,3.13
2017-12-25T01:06:05.816Z,2.27
2017-12-25T01:08:31.663Z,2.83
2017-12-25T01:10:57.545Z,2.57
2017-12-25T01:13:23.384Z,2.57
2017-12-25T01:15:49.264Z,2.80
2017-12-25T01:18:15.118Z,3.60
2017-12-25T01:20:41.013Z,2.60
2017-12-25T01:23:07.000Z,2.40
2017-12-25T01:25:32.896Z,3.55
2017-12-25T01:27:58.832Z,4.50
2017-12-25T01:30:24.718Z,2.20
2017-12-25T01:32:50.593Z,3.83
2017-12-25T01:35:16.489Z,3.10
2017-12-25T01:37:42.382Z,2.97
2017-12-25T01:40:08.250Z,2.47
2017-12-25T01:42:34.271Z,1.97
2017-12-25T01:45:00.124Z,2.75
2017-12-25T01:47:25.997Z,2.20
2017-12-25T01:49:54.439Z,1.90
2017-12-25T01:52:20.289Z,3.25
2017-12-25T01:54:49.562Z,2.63
2017-12-25T02:00:34.206Z,3.03
2017-12-25T02:03:00.087Z,3.00
2017-12-25T02:05:28.927Z,3.20
2017-12-25T02:11:02.204Z,2.83
2017-12-25T02:13:28.084Z,3.20
2017-12-25T02:15:53.945Z,3.97
2017-12-25T02:18:19.816Z,2.30
2017-12-25T02:20:45.683Z,2.40
2017-12-25T02:23:11.533Z,2.73
2017-12-25T02:25:39.325Z,3.57
2017-12-25T02:28:05.189Z,2.22
2017-12-25T02:30:31.016Z,2.50
2017-12-25T02:32:57.173Z,2.73
2017-12-25T02:35:23.042Z,2.70
2017-12-25T02:37:50.860Z,2.97
2017-12-25T02:40:16.724Z,4.32
2017-12-25T02:42:46.375Z,2.50
2017-12-25T02:45:12.222Z,6.10
2017-12-25T02:47:41.453Z,3.00
2017-12-25T02:50:07.321Z,3.15
2017-12-25T02:52:34.573Z,4.23
2017-12-25T02:55:00.431Z,3.95
2017-12-25T02:57:29.767Z,3.30
2017-12-25T02:59:55.632Z,6.00
2017-12-25T03:02:24.090Z,3.00
2017-12-25T03:04:49.991Z,4.90
2017-12-25T03:07:15.865Z,5.30
2017-12-25T03:09:41.710Z,5.60
2017-12-25T03:12:07.568Z,4.33
2017-12-25T03:14:35.902Z,5.13
2017-12-25T03:17:01.755Z,4.32
2017-12-25T03:19:31.022Z,4.63
2017-12-25T03:21:56.881Z,4.25
2017-12-25T03:24:25.944Z,4.77
2017-12-25T03:26:51.799Z,5.40
2017-12-25T03:29:21.134Z,4.73
2017-12-25T03:31:46.980Z,3.15
2017-12-25T03:34:14.515Z,4.87
2017-12-25T03:36:40.346Z,5.55
2017-12-25T03:39:09.700Z,5.47
2017-12-25T03:41:35.532Z,4.95
2017-12-25T03:44:01.384Z,5.90
2017-12-25T03:46:27.257Z,5.00
2017-12-25T03:48:53.134Z,4.27
2017-12-25T03:51:21.802Z,4.97
2017-12-25T03:53:47.608Z,5.55
2017-12-25T03:56:15.714Z,4.50
2017-12-25T03:58:41.561Z,4.70
2017-12-25T04:01:11.168Z,6.20
2017-12-25T04:03:37.049Z,5.57
2017-12-25T04:06:05.879Z,4.53
2017-12-25T04:08:31.725Z,6.85
2017-12-25T04:10:59.819Z,5.57
2017-12-25T04:13:25.665Z,6.20
2017-12-25T04:15:54.265Z,7.63
2017-12-25T04:18:20.171Z,6.90
2017-12-25T04:20:46.006Z,5.50
2017-12-25T04:23:11.844Z,7.37
2017-12-25T04:25:37.713Z,4.57
2017-12-25T04:28:06.126Z,5.37
2017-12-25T04:30:31.968Z,4.85
2017-12-25T04:33:00.359Z,5.13
2017-12-25T04:35:26.256Z,5.95
2017-12-25T04:40:23.142Z,2.92
2017-12-25T04:42:52.234Z,4.33
2017-12-25T04:45:18.106Z,6.18
2017-12-25T04:47:45.506Z,5.37
2017-12-25T04:50:11.395Z,5.25
2017-12-25T04:52:40.635Z,6.80
2017-12-25T04:55:06.485Z,5.00
2017-12-25T04:57:32.348Z,5.27
2017-12-25T04:59:58.222Z,6.70
2017-12-25T05:02:24.075Z,5.90
2017-12-25T05:04:51.762Z,5.60
2017-12-25T05:07:17.653Z,6.05
2017-12-25T05:09:47.151Z,6.93
2017-12-25T05:12:13.039Z,7.90
2017-12-25T05:14:41.074Z,5.80
2017-12-25T05:17:06.921Z,6.25
2017-12-25T05:19:35.806Z,5.30
2017-12-25T05:22:01.661Z,6.20
2017-12-25T05:24:31.069Z,6.13
2017-12-25T05:26:57.868Z,6.85
2017-12-25T05:29:26.803Z,8.63
2017-12-25T05:31:52.703Z,8.25
2017-12-25T05:34:18.541Z,8.90
2017-12-25T05:36:44.383Z,8.43
2017-12-25T05:39:10.296Z,7.87
2017-12-25T05:41:37.197Z,7.50
2017-12-25T05:44:03.067Z,7.25
2017-12-25T05:46:32.043Z,5.37
2017-12-25T05:48:57.917Z,5.93
2017-12-25T05:51:27.277Z,7.60
2017-12-25T05:53:53.191Z,7.53
2017-12-25T05:56:21.077Z,5.47
2017-12-25T05:58:46.932Z,8.75
2017-12-25T06:01:15.637Z,6.17
2017-12-25T06:03:41.482Z,6.50
2017-12-25T06:06:10.870Z,6.43
2017-12-25T06:08:36.741Z,6.15
2017-12-25T06:11:02.641Z,8.57
2017-12-25T06:13:28.474Z,8.37
2017-12-25T06:15:54.312Z,6.20
2017-12-25T06:18:21.923Z,6.47
2017-12-25T06:20:47.798Z,8.70
2017-12-25T06:23:16.679Z,6.70
2017-12-25T06:25:42.545Z,8.52
2017-12-25T06:28:11.952Z,11.17
2017-12-25T06:30:37.816Z,8.60
2017-12-25T06:33:06.248Z,6.87
2017-12-25T06:35:32.127Z,8.65
2017-12-25T06:38:01.399Z,7.23
2017-12-25T06:40:27.281Z,6.70
2017-12-25T06:42:56.409Z,7.90
2017-12-25T06:45:22.280Z,9.20
2017-12-25T06:47:48.179Z,8.53
2017-12-25T06:50:14.040Z,7.93
2017-12-25T06:52:39.896Z,9.40
2017-12-25T06:55:07.643Z,7.80
2017-12-25T06:57:33.487Z,8.38
2017-12-25T07:00:02.594Z,8.60
2017-12-25T07:02:28.451Z,10.75
2017-12-25T07:04:56.905Z,9.37
2017-12-25T07:07:22.759Z,8.27
2017-12-25T07:09:52.785Z,8.27
2017-12-25T07:12:18.593Z,12.02
2017-12-25T07:14:46.228Z,11.10
2017-12-25T07:17:12.097Z,11.77
2017-12-25T07:19:43.085Z,10.87
2017-12-25T07:22:08.934Z,9.18
2017-12-25T07:24:34.907Z,11.63
2017-12-25T07:27:04.395Z,9.55
2017-12-25T07:29:30.207Z,10.52
2017-12-25T07:31:56.030Z,9.03
2017-12-25T07:34:21.885Z,6.57
2017-12-25T07:36:47.714Z,11.10
2017-12-25T07:39:13.632Z,8.87
2017-12-25T07:41:43.120Z,10.80
2017-12-25T07:44:08.970Z,12.13
2017-12-25T07:46:38.250Z,10.57
2017-12-25T07:49:04.095Z,10.18
2017-12-25T07:51:33.288Z,10.40
2017-12-25T07:53:59.134Z,11.00
2017-12-25T07:56:26.612Z,9.73
2017-12-25T07:58:52.464Z,11.32
2017-12-25T08:01:18.261Z,10.63
2017-12-25T08:03:44.078Z,9.57
2017-12-25T08:06:09.886Z,11.87
2017-12-25T08:08:39.064Z,8.57
2017-12-25T08:11:04.871Z,10.30
2017-12-25T08:13:34.018Z,12.00
2017-12-25T08:15:59.857Z,10.88
2017-12-25T08:18:27.656Z,8.90
2017-12-25T08:20:53.547Z,29.87
2017-12-25T08:23:22.924Z,12.50
2017-12-25T08:25:48.769Z,10.68
2017-12-25T08:28:17.809Z,12.20
2017-12-25T08:30:43.667Z,12.75
2017-12-25T08:33:13.129Z,10.90
2017-12-25T08:35:38.964Z,13.75
2017-12-25T08:38:04.804Z,14.60
2017-12-25T08:40:30.703Z,11.27
2017-12-25T08:42:56.536Z,12.57
2017-12-25T08:45:23.373Z,15.67
2017-12-25T08:47:49.228Z,12.82
2017-12-25T08:50:18.310Z,11.50
2017-12-25T08:52:44.194Z,13.27
2017-12-25T08:55:12.894Z,11.83
2017-12-25T08:57:38.732Z,12.68
2017-12-25T09:00:07.380Z,13.43
2017-12-25T09:02:33.214Z,14.87
2017-12-25T09:05:02.217Z,13.93
2017-12-25T09:07:28.078Z,14.15
2017-12-25T09:09:56.713Z,16.23
2017-12-25T09:12:22.531Z,12.95
2017-12-25T09:14:48.390Z,16.87
2017-12-25T09:17:14.193Z,18.47
2017-12-25T09:19:40.040Z,17.03
2017-12-25T09:22:10.112Z,20.43
2017-12-25T09:24:35.932Z,17.25
2017-12-25T09:27:03.727Z,14.97
2017-12-25T09:29:29.540Z,17.70
2017-12-25T09:31:58.518Z,15.83
2017-12-25T09:34:24.357Z,19.55
2017-12-25T09:36:53.637Z,16.80
2017-12-25T09:39:19.502Z,15.20
2017-12-25T09:41:48.891Z,19.30
2017-12-25T09:44:14.769Z,15.68
2017-12-25T09:46:44.037Z,23.57
2017-12-25T09:49:09.849Z,23.45
2017-12-25T09:51:35.698Z,21.53
2017-12-25T09:54:01.521Z,18.10
2017-12-25T09:56:27.380Z,20.27
2017-12-25T09:58:54.048Z,14.47
2017-12-25T10:01:19.913Z,18.30
2017-12-25T10:03:48.898Z,18.90
2017-12-25T10:06:14.716Z,18.00
2017-12-25T10:08:44.951Z,18.90
2017-12-25T10:11:10.756Z,14.32
2017-12-25T10:13:40.127Z,13.27
2017-12-25T10:16:05.973Z,15.18
2017-12-25T10:18:33.210Z,14.67
2017-12-25T10:20:59.076Z,16.25
2017-12-25T10:23:28.202Z,10.50
2017-12-25T10:25:54.044Z,12.52
2017-12-25T10:28:19.916Z,13.20
2017-12-25T10:30:45.774Z,14.17
2017-12-25T10:33:11.640Z,11.77
2017-12-25T10:35:40.404Z,12.67
2017-12-25T10:38:06.228Z,13.20
2017-12-25T10:40:35.036Z,11.47
2017-12-25T10:43:00.908Z,13.00
2017-12-25T10:45:28.922Z,14.70
2017-12-25T10:47:54.761Z,12.93
2017-12-25T10:50:23.372Z,17.20
2017-12-25T10:52:49.214Z,12.95
2017-12-25T10:55:18.341Z,16.30
2017-12-25T10:57:44.187Z,10.98
2017-12-25T11:00:13.548Z,13.50
2017-12-25T11:02:39.431Z,10.20
2017-12-25T11:05:05.293Z,10.30
2017-12-25T11:07:31.111Z,13.90
2017-12-25T11:09:56.950Z,11.63
2017-12-25T11:12:26.353Z,14.50
2017-12-25T11:14:52.207Z,12.13
2017-12-25T11:17:21.090Z,12.20
2017-12-25T11:19:46.964Z,8.82
2017-12-25T11:22:14.266Z,7.77
2017-12-25T11:24:40.057Z,7.97
2017-12-25T11:27:08.557Z,11.90
2017-12-25T11:29:34.359Z,7.85
2017-12-25T11:32:00.924Z,9.53
2017-12-25T11:34:28.866Z,12.20
2017-12-25T11:36:58.146Z,8.20
2017-12-25T11:39:24.055Z,9.38
2017-12-25T11:41:49.916Z,9.10
2017-12-25T11:44:15.775Z,8.23
2017-12-25T11:46:41.643Z,8.63
2017-12-25T11:49:10.616Z,4.50
2017-12-25T11:51:36.438Z,5.57
2017-12-25T11:54:04.574Z,8.07
2017-12-25T11:56:30.438Z,6.32
2017-12-25T11:58:59.750Z,5.57
2017-12-25T12:01:25.589Z,5.43
2017-12-25T12:03:55.239Z,5.63
2017-12-25T12:06:21.070Z,6.62
2017-12-25T12:08:49.806Z,4.13
2017-12-25T12:11:15.640Z,5.28
2017-12-25T12:13:45.016Z,5.17
2017-12-25T12:16:10.885Z,5.12
2017-12-25T12:18:36.771Z,6.83
2017-12-25T12:21:02.603Z,4.70
2017-12-25T12:23:28.496Z,4.23
2017-12-25T12:25:56.192Z,6.60
2017-12-25T12:28:21.994Z,6.80
2017-12-25T12:30:49.799Z,10.00
2017-12-25T12:33:15.625Z,6.90
2017-12-25T12:35:44.313Z,5.93
2017-12-25T12:38:10.161Z,5.22
2017-12-25T12:43:07.010Z,7.37
2017-12-25T12:45:34.582Z,5.60
2017-12-25T12:48:00.431Z,5.55
2017-12-25T12:50:29.718Z,5.47
2017-12-25T12:52:55.570Z,7.05
2017-12-25T12:55:21.392Z,8.00
2017-12-25T12:57:47.207Z,6.33
2017-12-25T13:00:13.029Z,6.67
2017-12-25T13:02:40.537Z,4.53
2017-12-25T13:05:06.362Z,5.00
2017-12-25T13:07:35.475Z,4.93
2017-12-25T13:10:01.302Z,7.32
2017-12-25T13:12:30.940Z,7.10
2017-12-25T13:14:56.787Z,8.57
2017-12-25T13:17:26.061Z,8.83
2017-12-25T13:19:51.888Z,6.10
2017-12-25T13:22:21.272Z,6.00
2017-12-25T13:24:47.108Z,4.67
2017-12-25T13:27:14.691Z,6.17
2017-12-25T13:29:40.506Z,6.50
2017-12-25T13:32:06.351Z,5.93
2017-12-25T13:34:32.203Z,6.57
2017-12-25T13:36:58.073Z,11.07
2017-12-25T13:39:26.109Z,6.67
2017-12-25T13:41:51.986Z,5.07
2017-12-25T13:44:20.791Z,8.43
2017-12-25T13:46:46.653Z,5.70
2017-12-25T13:49:15.797Z,8.20
2017-12-25T13:51:41.654Z,9.70
2017-12-25T13:54:11.034Z,14.57
2017-12-25T13:56:36.893Z,14.07
2017-12-25T13:59:05.764Z,9.97
2017-12-25T14:01:31.588Z,11.40
2017-12-25T14:03:59.171Z,7.23
2017-12-25T14:06:25.076Z,7.20
2017-12-25T14:08:50.968Z,7.90
2017-12-25T14:11:16.803Z,8.57
2017-12-25T14:13:42.654Z,5.53
2017-12-25T14:16:11.718Z,7.93
2017-12-25T14:18:37.549Z,6.57
2017-12-25T14:21:06.746Z,8.63
2017-12-25T14:23:32.565Z,9.10
2017-12-25T14:26:01.899Z,11.17
2017-12-25T14:28:27.781Z,8.85
2017-12-25T14:30:55.298Z,7.40
2017-12-25T14:33:21.171Z,7.72
2017-12-25T14:35:50.911Z,7.03
2017-12-25T14:38:16.769Z,12.57
2017-12-25T14:40:45.043Z,10.40
2017-12-25T14:43:10.847Z,9.85
2017-12-25T14:45:36.684Z,10.80
2017-12-25T14:48:02.516Z,9.83
2017-12-25T14:50:28.360Z,7.60
2017-12-25T14:52:56.658Z,9.87
2017-12-25T14:55:22.510Z,8.45
2017-12-25T14:57:51.561Z,8.67
2017-12-25T15:00:17.424Z,7.93
2017-12-25T15:02:47.212Z,7.97
2017-12-25T15:05:13.005Z,6.72
2017-12-25T15:07:40.737Z,7.73
2017-12-25T15:10:06.573Z,8.45
2017-12-25T15:12:35.969Z,22.77
2017-12-25T15:15:01.824Z,11.60
2017-12-25T15:17:31.008Z,10.10
2017-12-25T15:19:56.850Z,8.45
2017-12-25T15:22:22.681Z,10.70
2017-12-25T15:24:48.490Z,7.50
2017-12-25T15:27:14.318Z,7.20
2017-12-25T15:29:41.656Z,11.30
2017-12-25T15:32:07.534Z,7.47
2017-12-25T15:34:36.500Z,10.40
2017-12-25T15:37:02.352Z,9.65
2017-12-25T15:39:31.002Z,10.63
2017-12-25T15:41:56.894Z,14.10
2017-12-25T15:44:23.364Z,11.63
2017-12-25T15:46:49.190Z,8.00
2017-12-25T15:49:15.066Z,26.13
2017-12-25T15:51:43.974Z,17.00
2017-12-25T15:54:09.774Z,15.88
2017-12-25T15:56:37.417Z,13.63
2017-12-25T15:59:03.237Z,15.75
2017-12-25T16:01:29.815Z,14.43
2017-12-25T16:03:57.769Z,11.40
2017-12-25T16:08:54.433Z,13.35
2017-12-25T16:11:23.438Z,12.63
2017-12-25T16:13:49.325Z,13.05
2017-12-25T16:16:39.962Z,17.47
2017-12-25T16:19:05.821Z,19.77
2017-12-25T16:21:31.659Z,17.03
2017-12-25T16:23:57.493Z,17.70
2017-12-25T16:26:23.367Z,15.77
2017-12-25T16:28:49.233Z,20.57
2017-12-25T16:31:15.071Z,14.40
2017-12-25T16:33:40.913Z,12.70
2017-12-25T16:36:06.769Z,10.00
2017-12-25T16:38:32.638Z,12.07
2017-12-25T16:40:58.523Z,17.43
2017-12-25T16:43:24.363Z,37.73
2017-12-25T16:45:50.229Z,31.63
2017-12-25T16:48:16.054Z,22.17
2017-12-25T16:50:41.881Z,16.50
2017-12-25T16:53:07.746Z,16.90
2017-12-25T16:55:33.590Z,17.43
2017-12-25T16:57:59.482Z,20.27
2017-12-25T17:00:25.325Z,22.30
2017-12-25T17:02:51.250Z,24.53
2017-12-25T17:05:17.062Z,21.57
2017-12-25T17:07:46.459Z,21.17
2017-12-25T17:10:12.309Z,18.12
2017-12-25T17:12:38.153Z,15.10
2017-12-25T17:15:04.027Z,10.30
2017-12-25T17:17:29.872Z,17.93
2017-12-25T17:19:57.433Z,14.90
2017-12-25T17:22:23.251Z,9.82
2017-12-25T17:27:19.983Z,11.15
2017-12-25T17:29:48.973Z,12.17
2017-12-25T17:32:14.802Z,12.13
2017-12-25T17:34:41.794Z,23.47
2017-12-25T17:37:07.625Z,11.20
2017-12-25T17:39:36.912Z,15.60
2017-12-25T17:42:02.756Z,16.50
2017-12-25T17:44:32.180Z,19.40
2017-12-25T17:46:58.012Z,24.73
2017-12-25T17:49:23.811Z,22.30
2017-12-25T17:51:49.637Z,19.20
2017-12-25T17:54:15.441Z,20.20
2017-12-25T17:56:44.575Z,18.17
2017-12-25T17:59:10.409Z,18.83
2017-12-25T18:01:37.713Z,27.10
2017-12-25T18:04:03.535Z,17.12
2017-12-25T18:06:32.533Z,19.00
2017-12-25T18:08:58.350Z,12.52
2017-12-25T18:11:27.716Z,15.73
2017-12-25T18:13:53.557Z,14.10
2017-12-25T18:16:22.713Z,19.60
2017-12-25T18:18:48.505Z,20.75
2017-12-25T18:21:17.553Z,22.93
2017-12-25T18:23:43.373Z,19.58
2017-12-25T18:26:09.194Z,21.50
2017-12-25T18:28:35.069Z,22.70
2017-12-25T18:31:00.938Z,23.20
2017-12-25T18:33:29.970Z,22.63
2017-12-25T18:35:55.825Z,21.08
2017-12-25T18:38:24.825Z,22.03
2017-12-25T18:40:50.713Z,28.62
2017-12-25T18:43:19.592Z,24.63
2017-12-25T18:45:45.402Z,21.42
2017-12-25T18:48:14.480Z,18.47
2017-12-25T18:50:40.306Z,20.10
2017-12-25T18:53:07.334Z,27.43
2017-12-25T18:55:33.183Z,24.90
2017-12-25T18:58:01.627Z,20.20
2017-12-25T19:00:27.445Z,21.62
2017-12-25T19:02:53.263Z,20.73
2017-12-25T19:05:19.139Z,22.47
2017-12-25T19:07:44.982Z,33.63
2017-12-25T19:10:13.907Z,38.50
2017-12-25T19:12:39.809Z,29.40
2017-12-25T19:15:09.061Z,24.73
2017-12-25T19:17:34.897Z,20.55
2017-12-25T19:20:02.846Z,21.10
2017-12-25T19:22:28.746Z,19.20
2017-12-25T19:24:57.478Z,15.53
2017-12-25T19:27:23.350Z,17.12
2017-12-25T19:32:19.888Z,35.22
2017-12-25T19:34:47.578Z,32.00
2017-12-25T19:37:13.443Z,32.50
2017-12-25T19:39:39.294Z,27.77
2017-12-25T19:42:05.126Z,29.20
2017-12-25T19:44:30.956Z,40.30
2017-12-25T19:46:59.885Z,49.20
2017-12-25T19:49:25.754Z,40.70
2017-12-25T19:51:54.970Z,37.30
2017-12-25T19:54:20.829Z,28.50
2017-12-25T19:56:48.494Z,24.83
2017-12-25T19:59:14.343Z,29.15
2017-12-25T20:01:43.815Z,25.73
2017-12-25T20:04:09.600Z,34.65
2017-12-25T20:06:39.405Z,29.63
2017-12-25T20:09:05.231Z,28.92
2017-12-25T20:11:34.394Z,25.63
2017-12-25T20:14:00.278Z,24.67
2017-12-25T20:16:26.153Z,19.30
2017-12-25T20:18:51.970Z,21.00
2017-12-25T20:21:17.798Z,23.57
2017-12-25T20:23:44.715Z,16.60
2017-12-25T20:26:10.577Z,19.23
2017-12-25T20:28:39.873Z,17.17
2017-12-25T20:31:05.729Z,17.12
2017-12-25T20:33:34.989Z,15.40
2017-12-25T20:36:00.860Z,8.13
2017-12-25T20:38:28.676Z,5.83
2017-12-25T20:40:54.527Z,8.93
2017-12-25T20:43:23.796Z,7.97
2017-12-25T20:45:49.657Z,9.68
2017-12-25T20:48:18.239Z,9.40
2017-12-25T20:50:44.069Z,7.00
2017-12-25T20:53:09.913Z,8.60
2017-12-25T20:55:35.741Z,5.80
2017-12-25T20:58:01.555Z,6.87
2017-12-25T21:00:31.304Z,6.73
2017-12-25T21:02:57.128Z,5.97
2017-12-25T21:05:24.414Z,4.80
2017-12-25T21:07:50.269Z,4.28
2017-12-25T21:10:19.974Z,19.80
2017-12-25T21:12:45.818Z,5.85
2017-12-25T21:15:14.802Z,11.63
2017-12-25T21:17:40.634Z,10.50
2017-12-25T21:20:09.636Z,11.80
2017-12-25T21:22:35.459Z,17.27
2017-12-25T21:25:03.775Z,4.27
2017-12-25T21:30:19.949Z,8.23
2017-12-25T21:32:45.800Z,9.10
2017-12-25T21:35:11.671Z,11.37
2017-12-25T21:37:37.531Z,9.40
2017-12-25T21:40:03.352Z,14.13
2017-12-25T21:42:29.224Z,7.03
2017-12-25T21:44:55.062Z,7.40
2017-12-25T21:47:20.933Z,7.50
2017-12-25T21:49:46.790Z,7.07
2017-12-25T21:52:12.646Z,8.50
2017-12-25T21:54:38.530Z,7.77
2017-12-25T21:57:04.396Z,9.33
2017-12-25T21:59:30.232Z,15.70
2017-12-25T22:01:56.116Z,11.53
2017-12-25T22:04:21.952Z,8.80
2017-12-25T22:06:47.823Z,10.90
2017-12-25T22:09:13.722Z,5.53
2017-12-25T22:11:39.524Z,6.43
2017-12-25T22:14:05.365Z,5.53
2017-12-25T22:16:31.202Z,8.00
2017-12-25T22:18:57.099Z,7.23
2017-12-25T22:21:22.937Z,15.77
2017-12-25T22:23:50.090Z,16.83
2017-12-25T22:26:15.957Z,6.32
2017-12-25T22:28:45.154Z,10.43
2017-12-25T22:31:10.990Z,6.30
2017-12-25T22:33:39.158Z,7.07
2017-12-25T22:36:05.023Z,4.87
2017-12-25T22:38:33.640Z,8.93
2017-12-25T22:40:59.505Z,13.10
2017-12-25T22:43:25.330Z,6.50
2017-12-25T22:45:51.216Z,5.67
2017-12-25T22:48:17.051Z,3.60
2017-12-25T22:50:46.481Z,4.87
2017-12-25T22:53:12.314Z,4.85
2017-12-25T22:55:40.314Z,6.03
2017-12-25T22:58:06.220Z,4.40
2017-12-25T23:00:35.409Z,6.93
2017-12-25T23:03:01.218Z,5.57
2017-12-25T23:05:30.668Z,2.20
2017-12-25T23:07:56.496Z,2.28
2017-12-25T23:10:25.842Z,5.00
2017-12-25T23:12:51.696Z,4.30
2017-12-25T23:15:20.766Z,4.97
2017-12-25T23:17:46.599Z,5.03
2017-12-25T23:20:12.475Z,2.67
2017-12-25T23:22:38.298Z,3.67
2017-12-25T23:25:04.180Z,4.53
2017-12-25T23:27:31.269Z,4.70
2017-12-25T23:29:57.084Z,6.15
2017-12-25T23:32:26.561Z,6.10
2017-12-25T23:34:52.401Z,3.20
2017-12-25T23:37:21.395Z,4.87
2017-12-25T23:39:47.234Z,3.85
2017-12-25T23:42:16.523Z,2.90
2017-12-25T23:44:42.377Z,3.62
2017-12-25T23:47:11.632Z,4.00
2017-12-25T23:49:37.499Z,3.08
2017-12-25T23:52:04.675Z,2.90
2017-12-25T23:54:30.536Z,4.68
2017-12-25T23:56:56.393Z,4.20
2017-12-25T23:59:22.227Z,15.20
